Time;durP1;ratioP1;P1;durP2;ratioP2;P2;SDS_P1;SDS_P2;PMS_P1;PMS_P2;Temp;Humidity;BMP_temperature;BMP_pressure;BME280_temperature;BME280_humidity;BME280_pressure;Samples;Min_cycle;Max_cycle;Signal;HPM_P1;HPM_P2
2022/11/20 00:01:33;;;;;;;41.47;23.40;;;1.30;98.00;;;;;;4823495;29;20210;-70
2022/11/20 00:04:02;;;;;;;38.47;23.80;;;1.30;98.20;;;;;;4823458;29;20356;-69
2022/11/20 00:06:32;;;;;;;38.30;24.33;;;1.30;98.10;;;;;;4804787;29;20212;-71
2022/11/20 00:09:02;;;;;;;38.00;23.20;;;1.30;98.40;;;;;;4814881;29;20253;-72
2022/11/20 00:11:32;;;;;;;39.03;21.30;;;1.30;97.70;;;;;;4804596;29;20210;-69
2022/11/20 00:14:02;;;;;;;36.93;21.30;;;1.20;97.00;;;;;;4811260;29;20239;-69
2022/11/20 00:16:32;;;;;;;34.30;21.03;;;1.30;97.10;;;;;;4825655;29;20207;-71
2022/11/20 00:19:01;;;;;;;34.50;20.67;;;1.10;97.60;;;;;;4804877;29;20859;-71
2022/11/20 00:21:30;;;;;;;38.33;21.73;;;1.00;98.20;;;;;;4822911;29;20205;-70
2022/11/20 00:23:59;;;;;;;34.87;20.97;;;1.00;98.90;;;;;;4822458;29;20204;-70
2022/11/20 00:26:29;;;;;;;36.37;20.80;;;0.90;99.20;;;;;;4822501;29;20669;-70
2022/11/20 00:28:59;;;;;;;36.93;21.20;;;1.00;99.70;;;;;;4822452;29;20216;-71
2022/11/20 00:31:29;;;;;;;36.97;22.00;;;1.10;99.90;;;;;;4822793;29;20214;-71
2022/11/20 00:33:57;;;;;;;31.93;21.40;;;1.10;99.90;;;;;;4823462;29;20212;-70
2022/11/20 00:36:27;;;;;;;37.30;23.63;;;1.20;99.90;;;;;;4806902;29;20602;-69
2022/11/20 00:38:57;;;;;;;41.47;25.47;;;1.20;99.70;;;;;;4823193;29;20213;-70
2022/11/20 00:41:29;;;;;;;39.07;23.50;;;1.30;99.60;;;;;;4823232;29;20688;-70
2022/11/20 00:43:58;;;;;;;42.07;23.30;;;1.30;99.20;;;;;;4823303;29;20206;-70
2022/11/20 00:46:28;;;;;;;39.63;22.93;;;1.40;99.30;;;;;;4823299;29;20288;-69
2022/11/20 00:48:57;;;;;;;36.20;22.03;;;1.40;98.10;;;;;;4819809;29;20216;-70
2022/11/20 00:51:27;;;;;;;39.27;22.27;;;1.40;98.00;;;;;;4813289;29;20210;-70
2022/11/20 00:53:57;;;;;;;40.73;21.67;;;1.40;97.80;;;;;;4805134;29;20217;-70
2022/11/20 00:56:25;;;;;;;42.53;23.17;;;1.40;97.10;;;;;;4804909;29;20202;-70
2022/11/20 00:58:56;;;;;;;38.77;22.27;;;1.30;97.00;;;;;;4804879;29;20286;-69
2022/11/20 01:01:28;;;;;;;44.83;23.97;;;1.10;98.10;;;;;;4804745;29;20202;-71
2022/11/20 01:04:00;;;;;;;39.20;23.00;;;1.10;99.00;;;;;;4804826;29;20208;-73
2022/11/20 01:06:30;;;;;;;41.67;25.43;;;1.00;99.30;;;;;;4805023;29;20203;-70
2022/11/20 01:09:00;;;;;;;41.13;24.43;;;1.00;99.60;;;;;;4804527;29;20265;-74
2022/11/20 01:11:31;;;;;;;38.77;22.03;;;1.10;99.70;;;;;;4818356;29;20676;-71
2022/11/20 01:14:02;;;;;;;38.47;21.73;;;1.10;99.50;;;;;;4841069;29;20209;-74
2022/11/20 01:16:33;;;;;;;39.53;23.43;;;1.10;99.10;;;;;;4841072;29;20246;-70
2022/11/20 01:19:03;;;;;;;38.00;23.87;;;1.20;98.80;;;;;;4841240;29;20230;-71
2022/11/20 01:21:33;;;;;;;44.77;24.87;;;1.20;98.50;;;;;;4841259;29;20224;-70
2022/11/20 01:24:03;;;;;;;38.17;23.07;;;1.20;98.50;;;;;;4822858;29;20682;-70
2022/11/20 01:26:33;;;;;;;41.20;24.33;;;1.20;96.90;;;;;;4818414;29;20208;-70
2022/11/20 01:29:05;;;;;;;40.40;22.53;;;1.10;96.50;;;;;;4822630;29;20206;-70
2022/11/20 01:31:35;;;;;;;39.93;22.90;;;1.10;96.30;;;;;;4806376;29;20237;-73
2022/11/20 01:34:06;;;;;;;47.57;25.23;;;1.10;96.10;;;;;;4840746;29;20211;-71
2022/11/20 01:36:36;;;;;;;44.70;25.07;;;1.00;96.80;;;;;;4841134;29;20277;-70
2022/11/20 01:39:08;;;;;;;42.30;24.77;;;1.00;96.40;;;;;;4842558;29;20205;-70
2022/11/20 01:44:49;;;;;;;50.63;27.97;;;0.90;96.80;;;;;;4844274;29;20300;-70
2022/11/20 01:47:22;;;;;;;44.90;24.70;;;0.70;96.80;;;;;;4844270;29;20204;-71
2022/11/20 01:49:56;;;;;;;40.20;24.77;;;0.50;97.40;;;;;;4844007;29;20232;-70
2022/11/20 01:52:29;;;;;;;41.97;23.43;;;0.30;98.30;;;;;;4843933;29;20199;-70
2022/11/20 01:55:02;;;;;;;41.00;24.57;;;0.30;98.90;;;;;;4843956;29;20205;-71
2022/11/20 01:57:33;;;;;;;46.27;26.67;;;0.30;99.40;;;;;;4843993;29;20197;-71
2022/11/20 02:00:07;;;;;;;42.30;25.03;;;0.20;99.90;;;;;;4843720;29;20205;-72
2022/11/20 02:02:44;;;;;;;48.77;26.83;;;0.30;99.90;;;;;;4843632;29;20205;-72
2022/11/20 02:05:25;;;;;;;49.13;26.70;;;0.20;99.50;;;;;;4843909;29;20253;-72
2022/11/20 02:07:57;;;;;;;46.60;26.70;;;0.20;99.90;;;;;;4840678;29;20297;-71
2022/11/20 02:10:26;;;;;;;50.83;28.17;;;0.20;99.90;;;;;;4815448;29;20812;-73
2022/11/20 02:15:43;;;;;;;42.80;23.30;;;0.10;99.90;;;;;;4808956;29;20209;-73
2022/11/20 02:18:14;;;;;;;42.87;23.57;;;0.10;99.90;;;;;;4825385;29;20270;-73
2022/11/20 02:20:44;;;;;;;45.57;24.17;;;0.10;99.90;;;;;;4825194;29;20217;-73
2022/11/20 02:23:17;;;;;;;43.90;24.93;;;0.10;99.90;;;;;;4825199;29;20208;-71
2022/11/20 02:25:49;;;;;;;41.13;22.67;;;0.00;99.90;;;;;;4825090;29;20237;-70
2022/11/20 02:28:18;;;;;;;43.23;23.90;;;0.00;99.90;;;;;;4825232;29;20214;-72
2022/11/20 02:30:47;;;;;;;39.00;24.37;;;0.00;99.90;;;;;;4824925;29;20225;-75
2022/11/20 02:33:15;;;;;;;43.00;23.97;;;0.00;99.90;;;;;;4825064;29;20209;-72
2022/11/20 02:35:45;;;;;;;46.23;25.23;;;0.10;99.90;;;;;;4825047;29;20208;-71
2022/11/20 02:38:15;;;;;;;48.03;25.77;;;0.10;99.90;;;;;;4824730;29;20198;-71
2022/11/20 02:40:44;;;;;;;45.57;24.20;;;0.10;99.90;;;;;;4824973;29;20214;-71
2022/11/20 02:43:14;;;;;;;41.37;23.70;;;0.10;99.90;;;;;;4825067;29;20561;-72
2022/11/20 02:45:42;;;;;;;41.07;23.07;;;0.10;99.90;;;;;;4824800;29;20213;-73
2022/11/20 02:48:10;;;;;;;44.20;24.73;;;0.10;99.90;;;;;;4824873;29;20216;-73
2022/11/20 02:50:40;;;;;;;43.33;24.70;;;0.10;99.90;;;;;;4824671;29;20590;-72
2022/11/20 02:53:09;;;;;;;44.20;25.43;;;0.10;99.90;;;;;;4824836;29;20192;-72
2022/11/20 02:55:37;;;;;;;42.53;25.53;;;0.20;99.90;;;;;;4824867;29;20214;-72
2022/11/20 02:58:06;;;;;;;43.90;23.13;;;0.20;99.90;;;;;;4824805;29;20232;-72
2022/11/20 03:00:36;;;;;;;43.13;24.20;;;0.20;99.90;;;;;;4824641;29;20205;-73
2022/11/20 03:03:04;;;;;;;44.60;23.73;;;0.10;99.90;;;;;;4824636;29;20206;-71
2022/11/20 03:05:33;;;;;;;44.37;23.97;;;0.10;99.90;;;;;;4806376;29;20213;-70
2022/11/20 03:08:01;;;;;;;47.47;25.43;;;0.10;99.90;;;;;;4813556;29;20242;-70
2022/11/20 03:10:30;;;;;;;43.10;24.30;;;0.10;99.90;;;;;;4820251;29;20226;-73
2022/11/20 03:12:58;;;;;;;41.87;23.03;;;0.10;99.90;;;;;;4816341;29;20212;-70
2022/11/20 03:15:27;;;;;;;39.03;21.50;;;0.20;99.90;;;;;;4806234;29;20289;-70
2022/11/20 03:17:57;;;;;;;44.80;24.33;;;0.20;99.90;;;;;;4806149;29;20206;-71
2022/11/20 03:20:26;;;;;;;40.17;23.17;;;0.20;99.90;;;;;;4806121;29;20693;-72
2022/11/20 03:22:55;;;;;;;39.47;22.73;;;0.20;99.90;;;;;;4805991;29;20213;-71
2022/11/20 03:25:24;;;;;;;39.70;22.00;;;0.20;99.90;;;;;;4806258;29;20595;-71
2022/11/20 03:27:52;;;;;;;46.67;22.93;;;0.10;99.90;;;;;;4806002;29;20206;-71
2022/11/20 03:30:21;;;;;;;36.73;21.27;;;0.10;99.80;;;;;;4805827;29;20209;-71
2022/11/20 03:32:55;;;;;;;41.70;23.10;;;0.10;99.40;;;;;;4805809;29;20214;-70
2022/11/20 03:35:25;;;;;;;39.13;22.57;;;0.10;99.50;;;;;;4805819;29;20345;-70
2022/11/20 03:37:54;;;;;;;38.90;21.50;;;0.00;99.50;;;;;;4805794;29;20202;-69
2022/11/20 03:40:22;;;;;;;40.33;21.73;;;-0.10;99.80;;;;;;4805961;29;20666;-71
2022/11/20 03:42:51;;;;;;;36.53;21.13;;;-0.10;99.90;;;;;;4805857;29;20206;-73
2022/11/20 03:45:19;;;;;;;38.40;21.80;;;-0.10;99.90;;;;;;4805563;29;20202;-72
2022/11/20 03:47:48;;;;;;;39.93;22.10;;;-0.20;99.60;;;;;;4805890;29;20210;-72
2022/11/20 03:50:17;;;;;;;37.50;22.43;;;-0.20;99.90;;;;;;4805854;29;20705;-72
2022/11/20 03:52:47;;;;;;;43.77;22.70;;;-0.20;99.90;;;;;;4804521;29;20704;-71
2022/11/20 03:55:15;;;;;;;36.93;20.90;;;-0.30;99.70;;;;;;4805728;29;20210;-73
2022/11/20 03:57:44;;;;;;;36.47;21.53;;;-0.30;99.70;;;;;;4805698;29;20678;-70
2022/11/20 04:00:14;;;;;;;39.43;20.80;;;-0.50;99.90;;;;;;4805354;29;20289;-70
2022/11/20 04:02:42;;;;;;;37.23;20.80;;;-0.50;99.90;;;;;;4805324;29;20214;-73
2022/11/20 04:05:11;;;;;;;37.07;21.33;;;-0.50;99.90;;;;;;4805494;29;20755;-71
2022/11/20 04:07:39;;;;;;;39.07;20.77;;;-0.40;99.90;;;;;;4805410;29;20242;-70
2022/11/20 04:10:09;;;;;;;36.70;19.53;;;-0.40;99.80;;;;;;4805588;29;20234;-70
2022/11/20 04:12:38;;;;;;;36.17;20.93;;;-0.30;99.90;;;;;;4805073;29;20234;-71
2022/11/20 04:15:07;;;;;;;36.63;22.03;;;-0.30;99.80;;;;;;4805194;29;20680;-72
2022/11/20 04:17:36;;;;;;;35.03;21.23;;;-0.30;99.30;;;;;;4810922;29;20209;-71
2022/11/20 04:20:05;;;;;;;37.10;20.63;;;-0.40;99.10;;;;;;4822586;29;20209;-70
2022/11/20 04:22:34;;;;;;;36.63;22.43;;;-0.40;98.80;;;;;;4806895;29;20225;-72
2022/11/20 04:25:02;;;;;;;39.27;22.40;;;-0.40;98.50;;;;;;4823378;29;20216;-71
2022/11/20 04:27:33;;;;;;;42.37;24.53;;;-0.40;98.50;;;;;;4823397;29;20205;-70
2022/11/20 04:30:01;;;;;;;44.07;23.57;;;-0.50;97.20;;;;;;4823291;29;20206;-70
2022/11/20 04:32:30;;;;;;;40.63;23.03;;;-0.50;97.40;;;;;;4823334;29;20592;-69
2022/11/20 04:34:58;;;;;;;40.80;21.17;;;-0.70;96.90;;;;;;4823354;29;20300;-70
2022/11/20 04:37:27;;;;;;;40.47;22.70;;;-1.00;97.80;;;;;;4807094;29;20687;-69
2022/11/20 04:39:55;;;;;;;40.37;21.80;;;-1.20;98.90;;;;;;4823223;29;20206;-71
2022/11/20 04:42:30;;;;;;;43.03;22.77;;;-1.10;99.40;;;;;;4823542;29;20216;-71
2022/11/20 04:44:59;;;;;;;42.47;22.10;;;-1.20;99.60;;;;;;4823464;29;20201;-69
2022/11/20 04:47:28;;;;;;;43.97;23.13;;;-1.30;99.60;;;;;;4823309;29;20209;-69
2022/11/20 04:49:56;;;;;;;39.13;22.10;;;-1.30;99.90;;;;;;4823448;29;20270;-69
2022/11/20 04:52:25;;;;;;;43.03;23.67;;;-1.20;99.90;;;;;;4823207;29;20225;-70
2022/11/20 04:54:54;;;;;;;40.20;22.67;;;-1.20;99.80;;;;;;4823302;29;20581;-70
2022/11/20 04:57:22;;;;;;;39.93;23.00;;;-1.10;99.90;;;;;;4822314;29;20693;-71
2022/11/20 04:59:51;;;;;;;41.00;21.47;;;-1.10;98.30;;;;;;4813538;29;20218;-69
2022/11/20 05:02:21;;;;;;;37.73;21.67;;;-1.10;97.90;;;;;;4804974;29;20218;-70
2022/11/20 05:04:50;;;;;;;40.47;22.60;;;-1.10;97.80;;;;;;4805028;29;20203;-70
2022/11/20 05:07:18;;;;;;;38.40;21.27;;;-1.10;97.20;;;;;;4804723;29;20198;-70
2022/11/20 05:09:47;;;;;;;44.43;24.83;;;-1.20;97.90;;;;;;4804762;29;20213;-70
2022/11/20 05:12:15;;;;;;;38.80;22.70;;;-1.20;97.60;;;;;;4805346;29;20260;-70
2022/11/20 05:14:44;;;;;;;42.40;21.23;;;-1.30;97.90;;;;;;4807954;29;20309;-70
2022/11/20 05:17:13;;;;;;;36.40;20.67;;;-1.30;96.40;;;;;;4835707;29;20204;-69
2022/11/20 05:19:42;;;;;;;35.63;19.07;;;-1.30;96.90;;;;;;4843822;29;20216;-69
2022/11/20 05:22:13;;;;;;;40.97;20.37;;;-1.30;96.80;;;;;;4834467;29;20216;-70
2022/11/20 05:24:41;;;;;;;39.13;20.40;;;-1.30;96.50;;;;;;4843728;29;20236;-73
2022/11/20 05:27:10;;;;;;;41.43;22.23;;;-1.30;96.10;;;;;;4842392;29;20205;-74
2022/11/20 05:29:38;;;;;;;34.70;20.50;;;-1.40;97.10;;;;;;4843710;29;20207;-70
2022/11/20 05:32:09;;;;;;;37.60;20.13;;;-1.40;97.10;;;;;;4843396;29;20224;-69
2022/11/20 05:34:37;;;;;;;37.30;19.80;;;-1.40;96.80;;;;;;4841140;29;20208;-72
2022/11/20 05:37:07;;;;;;;33.47;19.10;;;-1.40;96.30;;;;;;4806947;29;20217;-69
2022/11/20 05:39:36;;;;;;;40.33;19.90;;;-1.40;95.70;;;;;;4806721;29;20206;-71
2022/11/20 05:44:50;;;;;;;36.33;19.93;;;-1.50;94.20;;;;;;4807904;29;20202;-70
2022/11/20 05:47:19;;;;;;;36.27;19.40;;;-1.60;95.50;;;;;;4807524;29;20198;-68
2022/11/20 05:49:47;;;;;;;36.80;19.00;;;-1.60;95.60;;;;;;4807546;29;20206;-69
2022/11/20 05:52:17;;;;;;;35.93;19.60;;;-1.60;94.40;;;;;;4807721;29;20235;-67
2022/11/20 05:54:46;;;;;;;34.70;18.23;;;-1.70;94.00;;;;;;4807776;29;20213;-71
2022/11/20 05:57:14;;;;;;;36.27;19.80;;;-1.70;93.70;;;;;;4807426;29;20204;-70
2022/11/20 05:59:43;;;;;;;33.87;18.83;;;-1.80;94.50;;;;;;4807434;29;20218;-70
2022/11/20 06:02:12;;;;;;;36.07;20.83;;;-1.80;94.80;;;;;;4807307;29;20287;-67
2022/11/20 06:04:40;;;;;;;35.03;19.10;;;-1.90;94.60;;;;;;4807266;29;20297;-70
2022/11/20 06:07:09;;;;;;;37.10;20.50;;;-1.90;95.30;;;;;;4807390;29;20217;-69
2022/11/20 06:09:38;;;;;;;30.60;19.10;;;-1.90;96.00;;;;;;4807404;29;20246;-70
2022/11/20 06:12:08;;;;;;;30.93;19.07;;;-1.90;95.40;;;;;;4807305;29;20214;-70
2022/11/20 06:14:36;;;;;;;35.47;20.97;;;-1.90;96.20;;;;;;4807370;29;20267;-71
2022/11/20 06:17:05;;;;;;;35.80;21.07;;;-1.90;96.10;;;;;;4807430;29;20203;-75
2022/11/20 06:19:33;;;;;;;31.63;18.70;;;-1.90;96.90;;;;;;4807304;29;20206;-69
2022/11/20 06:22:01;;;;;;;36.37;19.73;;;-1.90;95.80;;;;;;4807262;29;20301;-68
2022/11/20 06:24:30;;;;;;;37.60;21.07;;;-1.90;94.60;;;;;;4806627;29;20224;-67
2022/11/20 06:27:00;;;;;;;37.40;19.77;;;-1.90;95.00;;;;;;4807081;29;20206;-70
2022/11/20 06:29:28;;;;;;;44.53;22.53;;;-1.90;95.40;;;;;;4807037;29;20198;-71
2022/11/20 06:32:01;;;;;;;42.23;22.47;;;-2.00;96.00;;;;;;4806703;29;20245;-66
2022/11/20 06:34:29;;;;;;;41.37;22.00;;;-2.00;94.90;;;;;;4806992;29;20206;-71
2022/11/20 06:36:58;;;;;;;40.87;22.03;;;-2.00;95.00;;;;;;4806999;29;20297;-71
2022/11/20 06:39:26;;;;;;;42.77;21.63;;;-2.00;95.70;;;;;;4807093;29;20203;-68
2022/11/20 06:41:55;;;;;;;38.90;23.20;;;-2.00;95.80;;;;;;4806630;29;20213;-70
2022/11/20 06:44:27;;;;;;;40.30;22.83;;;-2.00;95.40;;;;;;4806616;29;20214;-70
2022/11/20 06:46:56;;;;;;;51.53;31.37;;;-2.00;95.00;;;;;;4806546;29;20608;-68
2022/11/20 06:49:25;;;;;;;55.30;28.63;;;-2.00;95.10;;;;;;4806760;29;20221;-70
2022/11/20 06:51:53;;;;;;;46.70;24.67;;;-2.10;95.50;;;;;;4806751;29;20205;-70
2022/11/20 06:54:22;;;;;;;46.73;26.93;;;-2.10;96.20;;;;;;4806375;29;20238;-71
2022/11/20 06:56:50;;;;;;;42.60;23.93;;;-2.10;96.30;;;;;;4806746;29;20210;-69
2022/11/20 06:59:19;;;;;;;50.50;28.27;;;-2.10;95.90;;;;;;4806410;29;20285;-68
2022/11/20 07:01:49;;;;;;;39.07;21.60;;;-2.10;95.70;;;;;;4806300;29;20199;-68
2022/11/20 07:04:17;;;;;;;41.17;22.40;;;-2.20;95.60;;;;;;4806241;29;20214;-68
2022/11/20 07:06:46;;;;;;;40.37;22.50;;;-2.20;95.20;;;;;;4806207;29;20674;-68
2022/11/20 07:09:15;;;;;;;38.10;21.03;;;-2.10;95.20;;;;;;4806196;29;20549;-68
2022/11/20 07:11:43;;;;;;;39.13;19.67;;;-2.10;95.90;;;;;;4806327;29;20568;-67
2022/11/20 07:14:11;;;;;;;33.17;19.20;;;-2.10;95.10;;;;;;4806218;29;20717;-69
2022/11/20 07:16:40;;;;;;;32.33;18.07;;;-2.10;94.50;;;;;;4805842;29;20206;-68
2022/11/20 07:19:10;;;;;;;28.27;16.77;;;-2.20;95.10;;;;;;4806297;29;20207;-69
2022/11/20 07:21:39;;;;;;;33.23;18.30;;;-2.20;94.50;;;;;;4806095;29;20199;-69
2022/11/20 07:24:07;;;;;;;37.47;18.93;;;-2.20;95.30;;;;;;4805876;29;20202;-70
2022/11/20 07:26:36;;;;;;;34.57;18.73;;;-2.20;93.80;;;;;;4805901;29;20251;-71
2022/11/20 07:29:05;;;;;;;31.50;18.70;;;-2.20;94.60;;;;;;4806028;29;20205;-70
2022/11/20 07:31:33;;;;;;;38.27;20.00;;;-2.20;94.70;;;;;;4805812;29;20577;-69
2022/11/20 07:34:02;;;;;;;36.27;18.77;;;-2.10;94.90;;;;;;4805789;29;20720;-68
2022/11/20 07:36:32;;;;;;;34.17;18.33;;;-2.30;92.70;;;;;;4804881;29;20206;-68
2022/11/20 07:39:00;;;;;;;33.93;18.60;;;-2.20;95.00;;;;;;4819446;29;20233;-68
2022/11/20 07:41:29;;;;;;;33.60;18.47;;;-2.20;94.80;;;;;;4805913;29;20279;-69
2022/11/20 07:43:58;;;;;;;34.43;19.43;;;-2.20;93.60;;;;;;4803620;29;20210;-68
2022/11/20 07:46:26;;;;;;;51.17;27.53;;;-2.10;94.20;;;;;;4805577;29;20206;-69
2022/11/20 07:48:55;;;;;;;35.93;19.20;;;-2.20;93.00;;;;;;4805709;29;20749;-70
2022/11/20 07:51:23;;;;;;;37.40;19.77;;;-2.40;93.00;;;;;;4805719;29;20575;-67
2022/11/20 07:53:53;;;;;;;42.20;22.87;;;-2.50;93.50;;;;;;4805890;29;20602;-68
2022/11/20 07:56:22;;;;;;;43.20;24.50;;;-2.60;94.70;;;;;;4805666;29;20293;-68
2022/11/20 07:58:50;;;;;;;42.23;22.37;;;-2.70;95.10;;;;;;4805488;29;20603;-71
2022/11/20 08:01:19;;;;;;;51.60;29.03;;;-2.60;96.00;;;;;;4805409;29;20348;-72
2022/11/20 08:03:47;;;;;;;46.30;25.73;;;-2.70;96.20;;;;;;4805131;29;20259;-70
2022/11/20 08:06:16;;;;;;;66.23;34.23;;;-2.70;96.50;;;;;;4805636;29;20238;-71
2022/11/20 08:08:44;;;;;;;61.30;33.23;;;-2.70;97.30;;;;;;4804938;29;20242;-71
2022/11/20 08:14:12;;;;;;;83.07;44.17;;;-2.60;99.70;;;;;;4805292;29;20282;-69
2022/11/20 08:16:41;;;;;;;69.70;37.80;;;-2.50;99.90;;;;;;4805394;29;20210;-68
2022/11/20 08:19:10;;;;;;;76.83;40.57;;;-2.30;99.90;;;;;;4789198;29;20218;-69
2022/11/20 08:21:39;;;;;;;83.03;44.20;;;-2.20;99.90;;;;;;4805510;29;20214;-72
2022/11/20 08:24:08;;;;;;;81.93;42.30;;;-2.10;99.50;;;;;;4805131;29;20658;-72
2022/11/20 08:26:39;;;;;;;88.10;46.10;;;-2.00;99.70;;;;;;4805442;29;20202;-69
2022/11/20 08:29:08;;;;;;;76.90;43.20;;;-2.00;99.60;;;;;;4805282;29;20209;-69
2022/11/20 08:31:37;;;;;;;78.43;42.90;;;-1.90;99.60;;;;;;4805261;29;20673;-73
2022/11/20 08:34:05;;;;;;;84.37;45.43;;;-1.90;98.80;;;;;;4805019;29;20238;-72
2022/11/20 08:36:37;;;;;;;80.13;45.10;;;-1.80;98.80;;;;;;4805305;29;20217;-72
2022/11/20 08:39:05;;;;;;;87.37;47.77;;;-1.80;99.00;;;;;;4805335;29;20565;-72
2022/11/20 08:41:34;;;;;;;92.17;52.13;;;-1.70;98.90;;;;;;4805160;29;20685;-73
2022/11/20 08:44:06;;;;;;;94.33;52.43;;;-1.60;99.00;;;;;;4805276;29;20210;-69
2022/11/20 08:46:37;;;;;;;94.47;51.53;;;-1.70;99.30;;;;;;4805076;29;20209;-73
2022/11/20 08:49:06;;;;;;;84.97;48.30;;;-1.60;99.50;;;;;;4808425;29;20588;-73
2022/11/20 08:51:35;;;;;;;80.30;45.60;;;-1.60;99.20;;;;;;4808626;29;20206;-70
2022/11/20 08:54:05;;;;;;;91.23;50.53;;;-1.60;99.20;;;;;;4808600;29;20226;-69
2022/11/20 08:56:34;;;;;;;93.83;49.77;;;-1.50;99.20;;;;;;4808988;29;20218;-70
2022/11/20 08:59:04;;;;;;;83.30;48.00;;;-1.50;99.50;;;;;;4808817;29;20210;-73
2022/11/20 09:01:52;;;;;;;78.43;42.67;;;-1.50;99.90;;;;;;4808725;29;20298;-73
2022/11/20 09:04:21;;;;;;;84.23;45.77;;;-1.40;99.90;;;;;;4808783;29;20214;-70
2022/11/20 09:06:51;;;;;;;87.50;46.87;;;-1.40;99.70;;;;;;4808491;29;20202;-69
2022/11/20 09:09:19;;;;;;;71.57;41.37;;;-1.40;99.50;;;;;;4808491;29;20592;-71
2022/11/20 09:11:49;;;;;;;73.03;40.60;;;-1.40;99.40;;;;;;4806985;29;20304;-69
2022/11/20 09:14:19;;;;;;;85.90;45.03;;;-1.30;99.60;;;;;;4808419;29;20226;-72
2022/11/20 09:16:49;;;;;;;75.93;45.43;;;-1.20;99.20;;;;;;4808496;29;20380;-69
2022/11/20 09:19:21;;;;;;;83.80;44.50;;;-1.10;98.90;;;;;;4752599;30;20307;-75
2022/11/20 09:22:05;;;;;;;83.00;44.93;;;-1.10;98.70;;;;;;4752593;30;20303;-73
2022/11/20 09:24:33;;;;;;;72.70;39.63;;;-1.00;98.80;;;;;;4752627;30;20225;-71
2022/11/20 09:27:06;;;;;;;74.47;41.63;;;-1.00;98.60;;;;;;4752417;30;20605;-68
2022/11/20 09:29:36;;;;;;;82.33;44.73;;;-1.00;99.30;;;;;;4752505;30;20737;-71
2022/11/20 09:32:05;;;;;;;78.50;45.40;;;-0.90;99.70;;;;;;4752077;30;20213;-70
2022/11/20 09:34:33;;;;;;;93.13;46.47;;;-0.90;99.70;;;;;;4752288;30;20250;-73
2022/11/20 09:37:02;;;;;;;83.10;43.40;;;-0.80;99.80;;;;;;4756539;29;20301;-71
2022/11/20 09:39:31;;;;;;;85.77;45.83;;;-0.60;99.90;;;;;;4807982;29;20702;-69
2022/11/20 09:42:33;;;;;;;76.57;42.77;;;-0.50;99.50;;;;;;4807880;29;20222;-69
2022/11/20 09:45:22;;;;;;;73.30;39.50;;;-0.50;98.90;;;;;;4807886;29;20278;-69
2022/11/20 09:48:06;;;;;;;81.97;41.63;;;-0.30;99.50;;;;;;4807910;29;20309;-70
2022/11/20 09:50:42;;;;;;;86.77;45.63;;;-0.30;98.80;;;;;;4807948;29;20202;-71
2022/11/20 09:53:21;;;;;;;95.37;47.37;;;-0.40;99.10;;;;;;4807731;29;20214;-71
2022/11/20 09:55:50;;;;;;;84.13;46.53;;;-0.30;99.20;;;;;;4807798;29;20234;-68
2022/11/20 09:58:31;;;;;;;87.80;44.10;;;-0.30;99.70;;;;;;4807390;29;20210;-70
2022/11/20 10:01:13;;;;;;;77.07;40.07;;;-0.20;99.80;;;;;;4807431;29;20267;-70
2022/11/20 10:03:52;;;;;;;74.93;37.53;;;-0.20;99.20;;;;;;4807312;29;20297;-71
2022/11/20 10:06:29;;;;;;;70.63;37.33;;;-0.20;99.90;;;;;;4807848;29;20682;-70
2022/11/20 10:09:07;;;;;;;60.87;33.20;;;-0.10;99.90;;;;;;4807326;29;20341;-70
2022/11/20 10:11:47;;;;;;;64.47;33.40;;;-0.10;99.90;;;;;;4791079;29;20552;-70
2022/11/20 10:14:26;;;;;;;56.47;31.30;;;0.00;99.90;;;;;;4807301;29;20281;-70
2022/11/20 10:17:04;;;;;;;49.27;24.73;;;0.10;99.90;;;;;;4807069;29;20210;-72
2022/11/20 10:19:48;;;;;;;43.80;23.37;;;0.00;98.90;;;;;;4807214;29;20377;-73
2022/11/20 10:22:30;;;;;;;48.73;24.60;;;-0.10;99.90;;;;;;4807346;29;20202;-69
2022/11/20 10:25:08;;;;;;;39.20;20.93;;;-0.30;99.90;;;;;;4807336;29;20218;-71
2022/11/20 10:28:20;;;;;;;31.27;17.40;;;-0.30;99.90;;;;;;4807056;29;20236;-69
2022/11/20 10:30:56;;;;;;;37.23;19.57;;;-0.40;99.90;;;;;;4751383;30;20217;-70
2022/11/20 10:33:27;;;;;;;34.03;17.23;;;-0.40;99.90;;;;;;4751318;30;20212;-70
2022/11/20 10:36:15;;;;;;;37.73;21.37;;;-0.30;99.90;;;;;;4751176;30;20668;-70
2022/11/20 10:38:49;;;;;;;36.63;18.93;;;-0.10;99.90;;;;;;4750989;30;20222;-70
2022/11/20 10:41:27;;;;;;;39.63;19.67;;;0.10;99.90;;;;;;4751126;30;20287;-70
2022/11/20 10:44:05;;;;;;;35.73;19.03;;;0.20;99.90;;;;;;4751250;30;20212;-72
2022/11/20 10:47:22;;;;;;;39.00;21.00;;;0.30;99.20;;;;;;4751099;30;20700;-71
2022/11/20 10:49:54;;;;;;;36.87;19.93;;;0.40;99.70;;;;;;4681402;30;20582;-71
2022/11/20 10:52:33;;;;;;;40.27;20.37;;;0.50;97.90;;;;;;4681508;30;20254;-71
2022/11/20 10:55:13;;;;;;;44.77;23.00;;;0.50;97.40;;;;;;4681324;30;20284;-70
2022/11/20 10:57:53;;;;;;;41.07;21.87;;;0.50;97.60;;;;;;4681426;30;20222;-70
2022/11/20 11:00:22;;;;;;;48.73;24.77;;;0.50;97.50;;;;;;4681338;30;20215;-71
2022/11/20 11:02:52;;;;;;;36.40;20.10;;;0.50;97.50;;;;;;4681134;30;20274;-71
2022/11/20 11:05:37;;;;;;;42.27;20.57;;;0.60;97.90;;;;;;4720422;30;20679;-72
2022/11/20 11:08:13;;;;;;;35.60;20.63;;;0.60;97.80;;;;;;4732795;30;20389;-69
2022/11/20 11:10:49;;;;;;;42.97;22.57;;;0.70;98.50;;;;;;4732946;30;20216;-71
2022/11/20 11:13:22;;;;;;;38.27;20.83;;;0.80;98.10;;;;;;4732818;30;20215;-73
2022/11/20 11:15:50;;;;;;;38.33;19.43;;;0.90;97.90;;;;;;4732950;30;20241;-71
2022/11/20 11:18:26;;;;;;;34.53;18.03;;;1.00;96.70;;;;;;4732940;30;20377;-74
2022/11/20 11:20:58;;;;;;;37.57;19.20;;;1.00;97.10;;;;;;4733024;30;20263;-72
2022/11/20 11:23:36;;;;;;;40.40;21.17;;;1.00;96.30;;;;;;4732816;30;20220;-72
2022/11/20 11:26:06;;;;;;;36.07;19.10;;;1.10;97.70;;;;;;4753655;29;20209;-71
2022/11/20 11:28:35;;;;;;;33.13;19.20;;;1.20;95.90;;;;;;4806183;29;20202;-74
2022/11/20 11:31:03;;;;;;;37.93;18.87;;;1.20;95.80;;;;;;4806096;29;20211;-70
2022/11/20 11:33:34;;;;;;;36.47;19.83;;;1.30;94.90;;;;;;4805896;29;20206;-71
2022/11/20 11:36:17;;;;;;;38.83;19.80;;;1.30;94.00;;;;;;4805655;29;20234;-71
2022/11/20 11:38:46;;;;;;;40.83;20.43;;;1.30;94.50;;;;;;4805989;29;20202;-73
2022/11/20 11:41:19;;;;;;;33.37;19.47;;;1.30;95.20;;;;;;4805876;29;20305;-72
2022/11/20 11:46:42;;;;;;;93.37;49.70;;;1.40;94.50;;;;;;4805696;29;20681;-71
2022/11/20 11:49:18;;;;;;;53.07;29.10;;;1.50;94.60;;;;;;4805780;29;20208;-71
2022/11/20 11:52:03;;;;;;;38.70;22.37;;;1.50;95.40;;;;;;4805713;29;20207;-72
2022/11/20 11:54:37;;;;;;;59.70;32.17;;;1.60;93.80;;;;;;4805677;29;20207;-75
2022/11/20 11:57:13;;;;;;;73.97;35.00;;;1.40;92.70;;;;;;4805738;29;20202;-72
2022/11/20 11:59:52;;;;;;;66.57;34.97;;;1.20;92.90;;;;;;4804347;29;20614;-72
2022/11/20 12:02:34;;;;;;;67.60;34.90;;;1.10;93.60;;;;;;4805642;29;20202;-71
2022/11/20 12:05:11;;;;;;;67.03;34.93;;;0.90;94.30;;;;;;4805688;29;20309;-71
2022/11/20 12:07:44;;;;;;;62.30;35.27;;;0.90;94.50;;;;;;4789278;29;20269;-71
2022/11/20 12:10:21;;;;;;;68.93;34.97;;;0.80;95.40;;;;;;4805540;29;20225;-71
2022/11/20 12:12:55;;;;;;;68.53;35.77;;;0.70;95.60;;;;;;4805639;29;20237;-71
2022/11/20 12:15:35;;;;;;;74.97;37.23;;;0.80;95.60;;;;;;4805316;29;20321;-70
2022/11/20 12:18:15;;;;;;;72.43;36.80;;;0.80;95.70;;;;;;4804938;29;20234;-75
2022/11/20 12:20:51;;;;;;;72.50;37.10;;;0.80;95.70;;;;;;4805260;29;20245;-71
2022/11/20 12:23:28;;;;;;;66.37;34.90;;;0.80;95.60;;;;;;4803756;29;20619;-71
2022/11/20 12:26:00;;;;;;;78.17;39.50;;;0.80;96.10;;;;;;4805332;29;20295;-70
2022/11/20 12:28:40;;;;;;;73.00;35.70;;;0.90;96.70;;;;;;4805227;29;20266;-74
2022/11/20 12:31:24;;;;;;;64.40;35.27;;;1.00;95.90;;;;;;4805291;29;20278;-71
2022/11/20 12:34:18;;;;;;;68.07;35.93;;;1.00;95.70;;;;;;4805179;29;20217;-70
2022/11/20 12:36:55;;;;;;;69.53;35.87;;;1.10;95.40;;;;;;4805097;29;20286;-73
2022/11/20 12:39:42;;;;;;;77.03;37.47;;;1.10;94.90;;;;;;4805221;29;20614;-71
2022/11/20 12:45:31;;;;;;;65.33;32.13;;;1.10;95.50;;;;;;4805028;29;20209;-69
2022/11/20 12:48:36;;;;;;;59.70;33.27;;;1.10;95.10;;;;;;4804985;29;20717;-71
2022/11/20 12:51:30;;;;;;;67.63;35.43;;;1.00;95.70;;;;;;4749741;30;20222;-70
2022/11/20 12:54:23;;;;;;;71.10;35.87;;;1.10;96.50;;;;;;4679644;30;20207;-72
2022/11/20 12:56:59;;;;;;;70.50;37.00;;;1.20;95.30;;;;;;4679697;30;20245;-71
2022/11/20 12:59:46;;;;;;;65.10;36.27;;;1.30;95.00;;;;;;4679623;30;20215;-71
2022/11/20 13:02:26;;;;;;;70.03;35.87;;;1.40;94.50;;;;;;4679779;30;20222;-72
2022/11/20 13:05:12;;;;;;;71.57;36.60;;;1.50;94.70;;;;;;4679754;30;20231;-72
2022/11/20 13:07:42;;;;;;;64.90;36.20;;;1.50;95.30;;;;;;4679533;30;20791;-72
2022/11/20 13:10:19;;;;;;;67.90;37.67;;;1.50;95.30;;;;;;4679702;30;20219;-71
2022/11/20 13:12:52;;;;;;;89.07;41.77;;;1.60;95.50;;;;;;4679826;30;20219;-70